sensor_id;sensor_type;location;lat;lon;timestamp;P1;durP1;ratioP1;P2;durP2;ratioP2
72325;SDS011;60278;47.980;18.780;2022-08-01T00:01:23;6.20;;;4.07;;
72325;SDS011;60278;47.980;18.780;2022-08-01T00:04:54;9.00;;;4.40;;
72325;SDS011;60278;47.980;18.780;2022-08-01T00:08:25;9.80;;;5.07;;
72325;SDS011;60278;47.980;18.780;2022-08-01T00:11:56;6.18;;;4.15;;
72325;SDS011;60278;47.980;18.780;2022-08-01T00:15:27;7.15;;;3.88;;
72325;SDS011;60278;47.980;18.780;2022-08-01T00:18:58;7.13;;;3.90;;
72325;SDS011;60278;47.980;18.780;2022-08-01T00:22:33;10.02;;;4.38;;
72325;SDS011;60278;47.980;18.780;2022-08-01T00:26:05;8.43;;;5.13;;
72325;SDS011;60278;47.980;18.780;2022-08-01T00:29:36;6.40;;;5.05;;
72325;SDS011;60278;47.980;18.780;2022-08-01T00:33:07;8.97;;;5.30;;
72325;SDS011;60278;47.980;18.780;2022-08-01T00:36:38;7.80;;;5.05;;
72325;SDS011;60278;47.980;18.780;2022-08-01T00:40:09;9.80;;;4.95;;
72325;SDS011;60278;47.980;18.780;2022-08-01T00:43:40;6.97;;;4.53;;
72325;SDS011;60278;47.980;18.780;2022-08-01T00:47:11;8.23;;;4.97;;
72325;SDS011;60278;47.980;18.780;2022-08-01T00:50:42;7.38;;;4.68;;
72325;SDS011;60278;47.980;18.780;2022-08-01T00:54:14;10.30;;;4.40;;
72325;SDS011;60278;47.980;18.780;2022-08-01T00:57:46;7.40;;;4.38;;
72325;SDS011;60278;47.980;18.780;2022-08-01T01:01:18;7.93;;;4.32;;
72325;SDS011;60278;47.980;18.780;2022-08-01T01:04:51;6.03;;;4.32;;
72325;SDS011;60278;47.980;18.780;2022-08-01T01:08:24;7.40;;;4.93;;
72325;SDS011;60278;47.980;18.780;2022-08-01T01:15:38;11.90;;;5.40;;
72325;SDS011;60278;47.980;18.780;2022-08-01T01:19:13;7.93;;;5.00;;
72325;SDS011;60278;47.980;18.780;2022-08-01T01:22:57;8.95;;;4.72;;
72325;SDS011;60278;47.980;18.780;2022-08-01T01:30:50;9.37;;;4.53;;
72325;SDS011;60278;47.980;18.780;2022-08-01T01:34:24;9.20;;;4.85;;
72325;SDS011;60278;47.980;18.780;2022-08-01T01:38:01;7.45;;;5.22;;
72325;SDS011;60278;47.980;18.780;2022-08-01T01:41:43;6.55;;;4.80;;
72325;SDS011;60278;47.980;18.780;2022-08-01T01:45:16;10.33;;;5.43;;
72325;SDS011;60278;47.980;18.780;2022-08-01T01:48:48;6.93;;;4.78;;
72325;SDS011;60278;47.980;18.780;2022-08-01T01:52:20;7.53;;;4.55;;
72325;SDS011;60278;47.980;18.780;2022-08-01T01:55:55;7.63;;;4.67;;
72325;SDS011;60278;47.980;18.780;2022-08-01T01:59:29;7.65;;;4.70;;
72325;SDS011;60278;47.980;18.780;2022-08-01T02:03:02;8.18;;;4.40;;
72325;SDS011;60278;47.980;18.780;2022-08-01T02:06:35;7.83;;;4.07;;
72325;SDS011;60278;47.980;18.780;2022-08-01T02:10:08;7.70;;;4.50;;
72325;SDS011;60278;47.980;18.780;2022-08-01T02:13:41;8.77;;;4.60;;
72325;SDS011;60278;47.980;18.780;2022-08-01T02:17:15;7.65;;;5.05;;
72325;SDS011;60278;47.980;18.780;2022-08-01T02:20:47;8.67;;;5.30;;
72325;SDS011;60278;47.980;18.780;2022-08-01T02:24:37;10.10;;;5.70;;
72325;SDS011;60278;47.980;18.780;2022-08-01T02:28:20;9.13;;;5.88;;
72325;SDS011;60278;47.980;18.780;2022-08-01T02:31:57;9.57;;;5.20;;
72325;SDS011;60278;47.980;18.780;2022-08-01T02:35:32;9.15;;;5.47;;
72325;SDS011;60278;47.980;18.780;2022-08-01T02:39:09;7.60;;;5.45;;
72325;SDS011;60278;47.980;18.780;2022-08-01T02:42:45;8.03;;;5.37;;
72325;SDS011;60278;47.980;18.780;2022-08-01T02:46:24;11.07;;;5.85;;
72325;SDS011;60278;47.980;18.780;2022-08-01T02:50:00;7.85;;;5.85;;
72325;SDS011;60278;47.980;18.780;2022-08-01T02:53:33;10.85;;;5.25;;
72325;SDS011;60278;47.980;18.780;2022-08-01T02:57:08;7.40;;;5.00;;
72325;SDS011;60278;47.980;18.780;2022-08-01T03:00:39;13.15;;;5.32;;
72325;SDS011;60278;47.980;18.780;2022-08-01T03:04:14;7.45;;;4.65;;
72325;SDS011;60278;47.980;18.780;2022-08-01T03:07:48;8.10;;;4.90;;
72325;SDS011;60278;47.980;18.780;2022-08-01T03:11:19;8.27;;;4.70;;
72325;SDS011;60278;47.980;18.780;2022-08-01T03:14:51;6.35;;;4.97;;
72325;SDS011;60278;47.980;18.780;2022-08-01T03:18:26;7.57;;;5.07;;
72325;SDS011;60278;47.980;18.780;2022-08-01T03:21:58;6.70;;;4.82;;
72325;SDS011;60278;47.980;18.780;2022-08-01T03:25:34;12.27;;;5.13;;
72325;SDS011;60278;47.980;18.780;2022-08-01T03:29:10;11.70;;;5.28;;
72325;SDS011;60278;47.980;18.780;2022-08-01T03:32:46;7.07;;;5.10;;
72325;SDS011;60278;47.980;18.780;2022-08-01T03:36:17;12.27;;;6.65;;
72325;SDS011;60278;47.980;18.780;2022-08-01T03:39:58;9.50;;;5.82;;
72325;SDS011;60278;47.980;18.780;2022-08-01T03:43:37;10.20;;;5.80;;
72325;SDS011;60278;47.980;18.780;2022-08-01T03:47:12;8.50;;;5.97;;
72325;SDS011;60278;47.980;18.780;2022-08-01T03:50:48;8.90;;;5.95;;
72325;SDS011;60278;47.980;18.780;2022-08-01T03:54:23;11.20;;;6.40;;
72325;SDS011;60278;47.980;18.780;2022-08-01T03:57:56;7.93;;;5.95;;
72325;SDS011;60278;47.980;18.780;2022-08-01T04:01:28;6.80;;;5.13;;
72325;SDS011;60278;47.980;18.780;2022-08-01T04:05:01;7.90;;;4.55;;
72325;SDS011;60278;47.980;18.780;2022-08-01T04:08:34;5.33;;;3.80;;
72325;SDS011;60278;47.980;18.780;2022-08-01T04:12:06;8.55;;;3.70;;
72325;SDS011;60278;47.980;18.780;2022-08-01T04:15:37;9.10;;;3.80;;
72325;SDS011;60278;47.980;18.780;2022-08-01T04:19:08;5.93;;;3.50;;
72325;SDS011;60278;47.980;18.780;2022-08-01T04:22:39;8.35;;;3.45;;
72325;SDS011;60278;47.980;18.780;2022-08-01T04:26:11;6.13;;;3.20;;
72325;SDS011;60278;47.980;18.780;2022-08-01T04:29:44;7.40;;;3.30;;
72325;SDS011;60278;47.980;18.780;2022-08-01T04:33:17;6.70;;;3.87;;
72325;SDS011;60278;47.980;18.780;2022-08-01T04:36:51;5.82;;;3.50;;
72325;SDS011;60278;47.980;18.780;2022-08-01T04:40:25;6.60;;;3.65;;
72325;SDS011;60278;47.980;18.780;2022-08-01T04:43:57;7.25;;;3.17;;
72325;SDS011;60278;47.980;18.780;2022-08-01T04:47:33;5.07;;;3.23;;
72325;SDS011;60278;47.980;18.780;2022-08-01T04:51:15;6.35;;;3.00;;
72325;SDS011;60278;47.980;18.780;2022-08-01T04:54:47;6.20;;;3.00;;
72325;SDS011;60278;47.980;18.780;2022-08-01T04:58:18;7.30;;;3.30;;
72325;SDS011;60278;47.980;18.780;2022-08-01T05:01:49;7.20;;;3.20;;
72325;SDS011;60278;47.980;18.780;2022-08-01T05:05:21;5.88;;;3.60;;
72325;SDS011;60278;47.980;18.780;2022-08-01T05:08:52;7.80;;;3.70;;
72325;SDS011;60278;47.980;18.780;2022-08-01T05:12:23;8.53;;;4.20;;
72325;SDS011;60278;47.980;18.780;2022-08-01T05:15:54;9.07;;;3.97;;
72325;SDS011;60278;47.980;18.780;2022-08-01T05:19:25;7.03;;;4.00;;
72325;SDS011;60278;47.980;18.780;2022-08-01T05:22:57;9.25;;;4.60;;
72325;SDS011;60278;47.980;18.780;2022-08-01T05:26:28;8.83;;;4.90;;
72325;SDS011;60278;47.980;18.780;2022-08-01T05:29:59;9.25;;;5.10;;
72325;SDS011;60278;47.980;18.780;2022-08-01T05:33:30;8.05;;;5.50;;
72325;SDS011;60278;47.980;18.780;2022-08-01T05:37:01;8.70;;;5.35;;
72325;SDS011;60278;47.980;18.780;2022-08-01T05:40:33;9.80;;;5.53;;
72325;SDS011;60278;47.980;18.780;2022-08-01T05:44:04;11.45;;;5.65;;
72325;SDS011;60278;47.980;18.780;2022-08-01T05:47:35;8.05;;;5.72;;
72325;SDS011;60278;47.980;18.780;2022-08-01T05:51:07;11.63;;;5.87;;
72325;SDS011;60278;47.980;18.780;2022-08-01T05:54:38;10.53;;;5.70;;
72325;SDS011;60278;47.980;18.780;2022-08-01T05:58:09;8.70;;;5.70;;
72325;SDS011;60278;47.980;18.780;2022-08-01T06:01:40;8.90;;;5.82;;
72325;SDS011;60278;47.980;18.780;2022-08-01T06:05:11;9.50;;;5.80;;
72325;SDS011;60278;47.980;18.780;2022-08-01T06:08:42;9.15;;;5.60;;
72325;SDS011;60278;47.980;18.780;2022-08-01T06:12:13;8.35;;;6.28;;
72325;SDS011;60278;47.980;18.780;2022-08-01T06:15:45;9.15;;;5.95;;
72325;SDS011;60278;47.980;18.780;2022-08-01T06:19:16;7.67;;;5.37;;
72325;SDS011;60278;47.980;18.780;2022-08-01T06:22:47;9.38;;;5.43;;
72325;SDS011;60278;47.980;18.780;2022-08-01T06:26:18;10.90;;;5.80;;
72325;SDS011;60278;47.980;18.780;2022-08-01T06:29:50;7.10;;;5.20;;
72325;SDS011;60278;47.980;18.780;2022-08-01T06:33:23;5.47;;;3.93;;
72325;SDS011;60278;47.980;18.780;2022-08-01T06:36:55;7.30;;;4.55;;
72325;SDS011;60278;47.980;18.780;2022-08-01T06:40:26;7.68;;;3.78;;
72325;SDS011;60278;47.980;18.780;2022-08-01T06:43:57;6.23;;;4.07;;
72325;SDS011;60278;47.980;18.780;2022-08-01T06:47:30;8.07;;;4.30;;
72325;SDS011;60278;47.980;18.780;2022-08-01T06:51:01;8.30;;;4.03;;
72325;SDS011;60278;47.980;18.780;2022-08-01T06:54:38;8.40;;;4.00;;
72325;SDS011;60278;47.980;18.780;2022-08-01T06:58:09;7.90;;;3.90;;
72325;SDS011;60278;47.980;18.780;2022-08-01T07:01:40;5.37;;;4.03;;
72325;SDS011;60278;47.980;18.780;2022-08-01T07:05:12;7.63;;;3.80;;
72325;SDS011;60278;47.980;18.780;2022-08-01T07:08:43;8.90;;;4.25;;
72325;SDS011;60278;47.980;18.780;2022-08-01T07:12:14;7.83;;;4.13;;
72325;SDS011;60278;47.980;18.780;2022-08-01T07:15:46;7.47;;;4.03;;
72325;SDS011;60278;47.980;18.780;2022-08-01T07:19:17;10.18;;;4.10;;
72325;SDS011;60278;47.980;18.780;2022-08-01T07:22:48;8.25;;;3.90;;
72325;SDS011;60278;47.980;18.780;2022-08-01T07:26:19;8.02;;;4.07;;
72325;SDS011;60278;47.980;18.780;2022-08-01T07:29:50;8.73;;;4.90;;
72325;SDS011;60278;47.980;18.780;2022-08-01T07:33:22;7.30;;;4.72;;
72325;SDS011;60278;47.980;18.780;2022-08-01T07:36:53;5.78;;;3.90;;
72325;SDS011;60278;47.980;18.780;2022-08-01T07:40:24;5.60;;;3.90;;
72325;SDS011;60278;47.980;18.780;2022-08-01T07:43:55;7.57;;;3.70;;
72325;SDS011;60278;47.980;18.780;2022-08-01T07:47:26;6.00;;;3.85;;
72325;SDS011;60278;47.980;18.780;2022-08-01T07:50:57;6.07;;;3.80;;
72325;SDS011;60278;47.980;18.780;2022-08-01T07:54:28;10.10;;;3.75;;
72325;SDS011;60278;47.980;18.780;2022-08-01T07:57:59;7.20;;;4.20;;
72325;SDS011;60278;47.980;18.780;2022-08-01T08:01:30;5.20;;;3.85;;
72325;SDS011;60278;47.980;18.780;2022-08-01T08:05:02;8.27;;;3.92;;
72325;SDS011;60278;47.980;18.780;2022-08-01T08:08:34;8.07;;;3.92;;
72325;SDS011;60278;47.980;18.780;2022-08-01T08:12:05;5.83;;;3.70;;
72325;SDS011;60278;47.980;18.780;2022-08-01T08:15:37;6.40;;;4.03;;
72325;SDS011;60278;47.980;18.780;2022-08-01T08:19:08;7.22;;;4.15;;
72325;SDS011;60278;47.980;18.780;2022-08-01T08:22:39;6.65;;;4.40;;
72325;SDS011;60278;47.980;18.780;2022-08-01T08:26:10;9.23;;;4.60;;
72325;SDS011;60278;47.980;18.780;2022-08-01T08:29:42;11.33;;;5.33;;
72325;SDS011;60278;47.980;18.780;2022-08-01T08:33:13;7.22;;;5.10;;
72325;SDS011;60278;47.980;18.780;2022-08-01T08:36:44;8.90;;;5.10;;
72325;SDS011;60278;47.980;18.780;2022-08-01T08:40:15;7.65;;;4.57;;
72325;SDS011;60278;47.980;18.780;2022-08-01T08:43:47;8.40;;;4.63;;
72325;SDS011;60278;47.980;18.780;2022-08-01T08:47:18;7.55;;;4.68;;
72325;SDS011;60278;47.980;18.780;2022-08-01T08:50:49;8.98;;;4.85;;
72325;SDS011;60278;47.980;18.780;2022-08-01T08:54:22;8.88;;;5.15;;
72325;SDS011;60278;47.980;18.780;2022-08-01T08:57:57;6.43;;;4.30;;
72325;SDS011;60278;47.980;18.780;2022-08-01T09:01:33;6.50;;;4.20;;
72325;SDS011;60278;47.980;18.780;2022-08-01T09:05:05;6.95;;;5.22;;
72325;SDS011;60278;47.980;18.780;2022-08-01T09:08:37;6.53;;;4.53;;
72325;SDS011;60278;47.980;18.780;2022-08-01T09:12:08;6.85;;;4.95;;
72325;SDS011;60278;47.980;18.780;2022-08-01T09:15:40;9.80;;;4.73;;
72325;SDS011;60278;47.980;18.780;2022-08-01T09:22:47;8.05;;;4.55;;
72325;SDS011;60278;47.980;18.780;2022-08-01T09:26:19;7.13;;;4.97;;
72325;SDS011;60278;47.980;18.780;2022-08-01T09:33:50;6.70;;;4.50;;
72325;SDS011;60278;47.980;18.780;2022-08-01T09:37:30;6.07;;;4.20;;
72325;SDS011;60278;47.980;18.780;2022-08-01T09:41:01;6.45;;;3.75;;
72325;SDS011;60278;47.980;18.780;2022-08-01T09:44:39;8.57;;;4.18;;
72325;SDS011;60278;47.980;18.780;2022-08-01T09:48:14;13.85;;;4.32;;
72325;SDS011;60278;47.980;18.780;2022-08-01T09:51:48;5.60;;;3.43;;
72325;SDS011;60278;47.980;18.780;2022-08-01T09:55:21;8.33;;;3.80;;
72325;SDS011;60278;47.980;18.780;2022-08-01T09:58:54;7.90;;;3.80;;
72325;SDS011;60278;47.980;18.780;2022-08-01T10:02:31;8.82;;;4.05;;
72325;SDS011;60278;47.980;18.780;2022-08-01T10:06:18;6.32;;;4.35;;
72325;SDS011;60278;47.980;18.780;2022-08-01T10:09:50;8.53;;;3.67;;
72325;SDS011;60278;47.980;18.780;2022-08-01T10:13:22;7.33;;;3.90;;
72325;SDS011;60278;47.980;18.780;2022-08-01T10:16:53;7.90;;;3.63;;
72325;SDS011;60278;47.980;18.780;2022-08-01T10:20:27;6.72;;;3.25;;
72325;SDS011;60278;47.980;18.780;2022-08-01T10:24:01;7.00;;;3.30;;
72325;SDS011;60278;47.980;18.780;2022-08-01T10:27:34;8.30;;;3.40;;
72325;SDS011;60278;47.980;18.780;2022-08-01T10:31:08;5.17;;;2.70;;
72325;SDS011;60278;47.980;18.780;2022-08-01T10:34:39;5.13;;;3.00;;
72325;SDS011;60278;47.980;18.780;2022-08-01T10:38:11;4.18;;;2.58;;
72325;SDS011;60278;47.980;18.780;2022-08-01T10:41:42;10.00;;;2.67;;
72325;SDS011;60278;47.980;18.780;2022-08-01T10:45:15;4.87;;;2.50;;
72325;SDS011;60278;47.980;18.780;2022-08-01T10:48:51;5.10;;;2.77;;
72325;SDS011;60278;47.980;18.780;2022-08-01T10:52:31;7.03;;;2.90;;
72325;SDS011;60278;47.980;18.780;2022-08-01T10:56:03;4.10;;;2.58;;
72325;SDS011;60278;47.980;18.780;2022-08-01T10:59:36;7.00;;;2.80;;
72325;SDS011;60278;47.980;18.780;2022-08-01T11:03:26;4.63;;;2.33;;
72325;SDS011;60278;47.980;18.780;2022-08-01T11:07:05;4.60;;;2.70;;
72325;SDS011;60278;47.980;18.780;2022-08-01T11:10:38;7.13;;;2.80;;
72325;SDS011;60278;47.980;18.780;2022-08-01T11:14:13;5.93;;;3.13;;
72325;SDS011;60278;47.980;18.780;2022-08-01T11:17:45;5.28;;;2.90;;
72325;SDS011;60278;47.980;18.780;2022-08-01T11:21:20;6.90;;;3.00;;
72325;SDS011;60278;47.980;18.780;2022-08-01T11:24:54;8.60;;;3.20;;
72325;SDS011;60278;47.980;18.780;2022-08-01T11:28:27;6.82;;;2.78;;
72325;SDS011;60278;47.980;18.780;2022-08-01T11:32:22;8.07;;;3.38;;
72325;SDS011;60278;47.980;18.780;2022-08-01T11:39:40;5.17;;;2.93;;
72325;SDS011;60278;47.980;18.780;2022-08-01T11:50:31;6.30;;;3.30;;
72325;SDS011;60278;47.980;18.780;2022-08-01T11:54:02;8.93;;;2.70;;
72325;SDS011;60278;47.980;18.780;2022-08-01T11:57:34;6.87;;;2.60;;
72325;SDS011;60278;47.980;18.780;2022-08-01T12:01:06;4.88;;;2.70;;
72325;SDS011;60278;47.980;18.780;2022-08-01T12:04:50;6.97;;;3.15;;
72325;SDS011;60278;47.980;18.780;2022-08-01T12:08:30;5.90;;;2.53;;
72325;SDS011;60278;47.980;18.780;2022-08-01T12:12:06;4.27;;;2.47;;
72325;SDS011;60278;47.980;18.780;2022-08-01T12:15:39;7.00;;;2.50;;
72325;SDS011;60278;47.980;18.780;2022-08-01T12:19:10;5.75;;;2.30;;
72325;SDS011;60278;47.980;18.780;2022-08-01T12:22:41;6.10;;;2.45;;
72325;SDS011;60278;47.980;18.780;2022-08-01T12:26:14;7.65;;;2.50;;
72325;SDS011;60278;47.980;18.780;2022-08-01T12:29:45;4.73;;;2.30;;
72325;SDS011;60278;47.980;18.780;2022-08-01T12:33:17;4.30;;;2.10;;
72325;SDS011;60278;47.980;18.780;2022-08-01T12:36:49;4.00;;;2.35;;
72325;SDS011;60278;47.980;18.780;2022-08-01T12:40:24;5.07;;;2.22;;
72325;SDS011;60278;47.980;18.780;2022-08-01T12:44:00;6.80;;;2.20;;
72325;SDS011;60278;47.980;18.780;2022-08-01T12:47:31;5.83;;;2.30;;
72325;SDS011;60278;47.980;18.780;2022-08-01T12:51:02;5.10;;;2.37;;
72325;SDS011;60278;47.980;18.780;2022-08-01T12:58:36;3.60;;;1.80;;
72325;SDS011;60278;47.980;18.780;2022-08-01T13:02:08;4.35;;;1.98;;
72325;SDS011;60278;47.980;18.780;2022-08-01T13:05:55;5.13;;;1.87;;
72325;SDS011;60278;47.980;18.780;2022-08-01T13:09:28;4.37;;;1.80;;
72325;SDS011;60278;47.980;18.780;2022-08-01T13:12:59;4.43;;;2.10;;
72325;SDS011;60278;47.980;18.780;2022-08-01T13:16:30;5.82;;;1.80;;
72325;SDS011;60278;47.980;18.780;2022-08-01T13:20:01;5.15;;;1.80;;
72325;SDS011;60278;47.980;18.780;2022-08-01T13:23:32;4.80;;;1.80;;
72325;SDS011;60278;47.980;18.780;2022-08-01T13:27:04;5.67;;;2.00;;
72325;SDS011;60278;47.980;18.780;2022-08-01T13:30:35;4.47;;;1.98;;
72325;SDS011;60278;47.980;18.780;2022-08-01T13:34:06;3.90;;;1.92;;
72325;SDS011;60278;47.980;18.780;2022-08-01T13:37:38;3.72;;;2.15;;
72325;SDS011;60278;47.980;18.780;2022-08-01T13:41:13;6.60;;;2.47;;
72325;SDS011;60278;47.980;18.780;2022-08-01T13:44:44;3.93;;;2.17;;
72325;SDS011;60278;47.980;18.780;2022-08-01T13:48:17;5.22;;;2.30;;
72325;SDS011;60278;47.980;18.780;2022-08-01T13:51:49;4.95;;;2.00;;
72325;SDS011;60278;47.980;18.780;2022-08-01T13:55:21;4.35;;;2.00;;
72325;SDS011;60278;47.980;18.780;2022-08-01T13:58:52;5.53;;;2.20;;
72325;SDS011;60278;47.980;18.780;2022-08-01T14:02:23;7.57;;;2.03;;
72325;SDS011;60278;47.980;18.780;2022-08-01T14:05:54;6.75;;;2.10;;
72325;SDS011;60278;47.980;18.780;2022-08-01T14:09:26;4.00;;;1.92;;
72325;SDS011;60278;47.980;18.780;2022-08-01T14:12:57;6.22;;;2.05;;
72325;SDS011;60278;47.980;18.780;2022-08-01T14:16:29;5.70;;;2.03;;
72325;SDS011;60278;47.980;18.780;2022-08-01T14:20:00;4.97;;;1.92;;
72325;SDS011;60278;47.980;18.780;2022-08-01T14:23:32;4.22;;;2.03;;
72325;SDS011;60278;47.980;18.780;2022-08-01T14:27:04;3.85;;;2.10;;
72325;SDS011;60278;47.980;18.780;2022-08-01T14:30:35;4.25;;;2.17;;
72325;SDS011;60278;47.980;18.780;2022-08-01T14:34:06;4.30;;;2.13;;
72325;SDS011;60278;47.980;18.780;2022-08-01T14:37:37;3.85;;;1.95;;
72325;SDS011;60278;47.980;18.780;2022-08-01T14:41:08;5.00;;;2.10;;
72325;SDS011;60278;47.980;18.780;2022-08-01T14:44:39;9.02;;;2.10;;
72325;SDS011;60278;47.980;18.780;2022-08-01T14:48:10;5.45;;;2.30;;
72325;SDS011;60278;47.980;18.780;2022-08-01T14:51:41;7.70;;;2.10;;
72325;SDS011;60278;47.980;18.780;2022-08-01T14:55:12;7.30;;;2.35;;
72325;SDS011;60278;47.980;18.780;2022-08-01T14:58:44;5.40;;;1.80;;
72325;SDS011;60278;47.980;18.780;2022-08-01T15:02:15;7.65;;;2.00;;
72325;SDS011;60278;47.980;18.780;2022-08-01T15:05:47;4.18;;;2.00;;
72325;SDS011;60278;47.980;18.780;2022-08-01T15:09:19;3.80;;;1.80;;
72325;SDS011;60278;47.980;18.780;2022-08-01T15:12:50;5.28;;;1.98;;
72325;SDS011;60278;47.980;18.780;2022-08-01T15:16:21;5.53;;;2.28;;
72325;SDS011;60278;47.980;18.780;2022-08-01T15:19:52;5.53;;;2.20;;
72325;SDS011;60278;47.980;18.780;2022-08-01T15:23:24;4.30;;;2.10;;
72325;SDS011;60278;47.980;18.780;2022-08-01T15:26:55;3.60;;;2.13;;
72325;SDS011;60278;47.980;18.780;2022-08-01T15:30:26;4.85;;;2.33;;
72325;SDS011;60278;47.980;18.780;2022-08-01T15:33:57;3.97;;;2.33;;
72325;SDS011;60278;47.980;18.780;2022-08-01T15:37:28;7.82;;;2.22;;
72325;SDS011;60278;47.980;18.780;2022-08-01T15:40:59;5.43;;;2.50;;
72325;SDS011;60278;47.980;18.780;2022-08-01T15:44:31;5.40;;;2.30;;
72325;SDS011;60278;47.980;18.780;2022-08-01T15:48:04;5.75;;;2.35;;
72325;SDS011;60278;47.980;18.780;2022-08-01T15:51:35;4.22;;;2.33;;
72325;SDS011;60278;47.980;18.780;2022-08-01T15:55:06;5.47;;;2.17;;
72325;SDS011;60278;47.980;18.780;2022-08-01T15:58:38;4.63;;;2.43;;
72325;SDS011;60278;47.980;18.780;2022-08-01T16:02:09;5.78;;;2.42;;
72325;SDS011;60278;47.980;18.780;2022-08-01T16:05:40;6.78;;;2.65;;
72325;SDS011;60278;47.980;18.780;2022-08-01T16:09:13;5.25;;;2.25;;
72325;SDS011;60278;47.980;18.780;2022-08-01T16:12:45;4.97;;;2.37;;
72325;SDS011;60278;47.980;18.780;2022-08-01T16:16:16;5.93;;;2.40;;
72325;SDS011;60278;47.980;18.780;2022-08-01T16:19:47;4.40;;;2.45;;
72325;SDS011;60278;47.980;18.780;2022-08-01T16:23:20;4.40;;;2.13;;
72325;SDS011;60278;47.980;18.780;2022-08-01T16:26:51;5.25;;;2.65;;
72325;SDS011;60278;47.980;18.780;2022-08-01T16:30:22;5.37;;;2.50;;
72325;SDS011;60278;47.980;18.780;2022-08-01T16:33:53;5.70;;;2.30;;
72325;SDS011;60278;47.980;18.780;2022-08-01T16:37:24;6.63;;;2.50;;
72325;SDS011;60278;47.980;18.780;2022-08-01T16:40:55;4.80;;;2.67;;
72325;SDS011;60278;47.980;18.780;2022-08-01T16:44:26;7.10;;;2.40;;
72325;SDS011;60278;47.980;18.780;2022-08-01T16:47:57;4.18;;;2.40;;
72325;SDS011;60278;47.980;18.780;2022-08-01T16:51:28;4.80;;;2.75;;
72325;SDS011;60278;47.980;18.780;2022-08-01T16:55:00;6.28;;;2.50;;
72325;SDS011;60278;47.980;18.780;2022-08-01T16:58:31;6.37;;;2.60;;
72325;SDS011;60278;47.980;18.780;2022-08-01T17:02:02;6.63;;;2.73;;
72325;SDS011;60278;47.980;18.780;2022-08-01T17:05:34;5.95;;;2.65;;
72325;SDS011;60278;47.980;18.780;2022-08-01T17:09:05;7.78;;;2.67;;
72325;SDS011;60278;47.980;18.780;2022-08-01T17:12:36;4.35;;;2.45;;
72325;SDS011;60278;47.980;18.780;2022-08-01T17:16:09;4.50;;;2.60;;
72325;SDS011;60278;47.980;18.780;2022-08-01T17:19:40;5.60;;;2.40;;
72325;SDS011;60278;47.980;18.780;2022-08-01T17:23:12;3.83;;;2.40;;
72325;SDS011;60278;47.980;18.780;2022-08-01T17:26:44;5.95;;;2.50;;
72325;SDS011;60278;47.980;18.780;2022-08-01T17:30:15;4.93;;;2.63;;
72325;SDS011;60278;47.980;18.780;2022-08-01T17:33:46;5.60;;;2.63;;
72325;SDS011;60278;47.980;18.780;2022-08-01T17:37:17;6.38;;;2.58;;
72325;SDS011;60278;47.980;18.780;2022-08-01T17:40:48;5.47;;;2.40;;
72325;SDS011;60278;47.980;18.780;2022-08-01T17:44:19;4.50;;;2.40;;
72325;SDS011;60278;47.980;18.780;2022-08-01T17:47:50;4.80;;;2.50;;
72325;SDS011;60278;47.980;18.780;2022-08-01T17:51:21;7.50;;;3.00;;
72325;SDS011;60278;47.980;18.780;2022-08-01T17:54:52;8.50;;;2.63;;
72325;SDS011;60278;47.980;18.780;2022-08-01T17:58:24;4.03;;;2.45;;
72325;SDS011;60278;47.980;18.780;2022-08-01T18:01:55;6.47;;;2.65;;
72325;SDS011;60278;47.980;18.780;2022-08-01T18:05:26;4.97;;;2.70;;
72325;SDS011;60278;47.980;18.780;2022-08-01T18:08:57;4.50;;;2.60;;
72325;SDS011;60278;47.980;18.780;2022-08-01T18:12:28;6.43;;;2.58;;
72325;SDS011;60278;47.980;18.780;2022-08-01T18:15:59;6.68;;;2.78;;
72325;SDS011;60278;47.980;18.780;2022-08-01T18:19:30;5.38;;;2.60;;
72325;SDS011;60278;47.980;18.780;2022-08-01T18:23:01;4.80;;;2.43;;
72325;SDS011;60278;47.980;18.780;2022-08-01T18:26:33;4.65;;;2.88;;
72325;SDS011;60278;47.980;18.780;2022-08-01T18:30:04;3.95;;;2.50;;
72325;SDS011;60278;47.980;18.780;2022-08-01T18:33:36;5.97;;;2.83;;
72325;SDS011;60278;47.980;18.780;2022-08-01T18:37:07;4.47;;;2.37;;
72325;SDS011;60278;47.980;18.780;2022-08-01T18:40:40;6.82;;;2.83;;
72325;SDS011;60278;47.980;18.780;2022-08-01T18:44:12;6.90;;;2.55;;
72325;SDS011;60278;47.980;18.780;2022-08-01T18:47:45;5.75;;;2.70;;
72325;SDS011;60278;47.980;18.780;2022-08-01T18:51:17;3.97;;;2.33;;
72325;SDS011;60278;47.980;18.780;2022-08-01T18:54:48;4.35;;;2.35;;
72325;SDS011;60278;47.980;18.780;2022-08-01T18:58:21;6.15;;;2.70;;
72325;SDS011;60278;47.980;18.780;2022-08-01T19:01:52;4.15;;;2.60;;
72325;SDS011;60278;47.980;18.780;2022-08-01T19:05:23;9.30;;;2.40;;
72325;SDS011;60278;47.980;18.780;2022-08-01T19:08:54;7.28;;;2.60;;
72325;SDS011;60278;47.980;18.780;2022-08-01T19:12:25;5.60;;;2.45;;
72325;SDS011;60278;47.980;18.780;2022-08-01T19:15:56;6.03;;;2.65;;
72325;SDS011;60278;47.980;18.780;2022-08-01T19:19:28;7.30;;;2.93;;
72325;SDS011;60278;47.980;18.780;2022-08-01T19:22:59;5.32;;;2.53;;
72325;SDS011;60278;47.980;18.780;2022-08-01T19:27:00;5.93;;;2.97;;
72325;SDS011;60278;47.980;18.780;2022-08-01T19:30:36;7.15;;;3.00;;
72325;SDS011;60278;47.980;18.780;2022-08-01T19:34:08;6.13;;;2.90;;
72325;SDS011;60278;47.980;18.780;2022-08-01T19:37:42;5.10;;;2.80;;
72325;SDS011;60278;47.980;18.780;2022-08-01T19:41:15;6.63;;;3.08;;
72325;SDS011;60278;47.980;18.780;2022-08-01T19:44:48;7.27;;;3.00;;
72325;SDS011;60278;47.980;18.780;2022-08-01T19:48:21;5.73;;;2.93;;
72325;SDS011;60278;47.980;18.780;2022-08-01T19:51:54;5.20;;;2.58;;
72325;SDS011;60278;47.980;18.780;2022-08-01T19:55:29;4.88;;;2.67;;
72325;SDS011;60278;47.980;18.780;2022-08-01T19:59:02;5.22;;;2.60;;
72325;SDS011;60278;47.980;18.780;2022-08-01T20:02:34;6.00;;;3.00;;
72325;SDS011;60278;47.980;18.780;2022-08-01T20:06:06;8.73;;;3.05;;
72325;SDS011;60278;47.980;18.780;2022-08-01T20:09:37;4.45;;;2.45;;
72325;SDS011;60278;47.980;18.780;2022-08-01T20:13:10;4.78;;;2.80;;
72325;SDS011;60278;47.980;18.780;2022-08-01T20:16:41;4.40;;;2.70;;
72325;SDS011;60278;47.980;18.780;2022-08-01T20:20:13;6.75;;;3.00;;
72325;SDS011;60278;47.980;18.780;2022-08-01T20:23:44;4.65;;;2.45;;
72325;SDS011;60278;47.980;18.780;2022-08-01T20:27:16;5.53;;;2.80;;
72325;SDS011;60278;47.980;18.780;2022-08-01T20:30:50;5.67;;;2.83;;
72325;SDS011;60278;47.980;18.780;2022-08-01T20:34:24;6.30;;;3.10;;
72325;SDS011;60278;47.980;18.780;2022-08-01T20:37:55;6.57;;;3.10;;
72325;SDS011;60278;47.980;18.780;2022-08-01T20:41:27;4.72;;;2.90;;
72325;SDS011;60278;47.980;18.780;2022-08-01T20:45:00;5.33;;;2.63;;
72325;SDS011;60278;47.980;18.780;2022-08-01T20:48:31;4.88;;;2.80;;
72325;SDS011;60278;47.980;18.780;2022-08-01T20:52:03;7.25;;;3.30;;
72325;SDS011;60278;47.980;18.780;2022-08-01T20:55:44;7.43;;;3.20;;
72325;SDS011;60278;47.980;18.780;2022-08-01T20:59:18;4.67;;;3.20;;
72325;SDS011;60278;47.980;18.780;2022-08-01T21:03:11;6.47;;;3.17;;
72325;SDS011;60278;47.980;18.780;2022-08-01T21:06:52;11.32;;;3.22;;
72325;SDS011;60278;47.980;18.780;2022-08-01T21:10:25;8.27;;;2.73;;
72325;SDS011;60278;47.980;18.780;2022-08-01T21:13:58;5.60;;;2.80;;
72325;SDS011;60278;47.980;18.780;2022-08-01T21:17:46;4.20;;;2.85;;
72325;SDS011;60278;47.980;18.780;2022-08-01T21:21:26;10.45;;;3.33;;
72325;SDS011;60278;47.980;18.780;2022-08-01T21:25:02;4.63;;;2.93;;
72325;SDS011;60278;47.980;18.780;2022-08-01T21:28:36;8.13;;;3.03;;
72325;SDS011;60278;47.980;18.780;2022-08-01T21:32:09;6.82;;;3.35;;